Time;durP1;ratioP1;P1;durP2;ratioP2;P2;SDS_P1;SDS_P2;PMS_P1;PMS_P2;Temp;Humidity;BMP_temperature;BMP_pressure;BME280_temperature;BME280_humidity;BME280_pressure;Samples;Min_cycle;Max_cycle;Signal;HPM_P1;HPM_P2
2023/04/29 00:01:13;;;;;;;;;;;18.60;63.90;;;;;;5048699;28;19947;-62
2023/04/29 00:03:38;;;;;;;;;;;18.50;63.80;;;;;;5048230;28;19939;-62
2023/04/29 00:06:04;;;;;;;;;;;18.40;63.50;;;;;;5048234;28;19966;-61
2023/04/29 00:08:29;;;;;;;;;;;18.30;63.50;;;;;;5048708;28;19909;-62
2023/04/29 00:10:55;;;;;;;;;;;18.30;63.80;;;;;;5048862;28;20291;-62
2023/04/29 00:13:20;;;;;;;;;;;18.10;63.60;;;;;;5048243;28;19962;-62
2023/04/29 00:15:46;;;;;;;;;;;18.00;63.60;;;;;;5048212;28;20022;-62
2023/04/29 00:18:12;;;;;;;;;;;17.90;64.00;;;;;;5048010;28;20431;-62
2023/04/29 00:20:38;;;;;;;;;;;17.80;64.30;;;;;;5048353;28;20033;-62
2023/04/29 00:23:04;;;;;;;;;;;17.80;64.40;;;;;;5048260;28;20339;-62
2023/04/29 00:25:30;;;;;;;;;;;17.70;64.60;;;;;;5048660;28;19913;-62
2023/04/29 00:28:00;;;;;;;;;;;17.70;64.70;;;;;;5029981;28;20316;-62
2023/04/29 00:30:26;;;;;;;;;;;17.70;64.80;;;;;;5048299;28;19951;-62
2023/04/29 00:32:52;;;;;;;;;;;17.70;64.80;;;;;;5048234;28;19978;-62
2023/04/29 00:35:17;;;;;;;;;;;17.70;64.90;;;;;;5048279;28;20280;-63
2023/04/29 00:37:42;;;;;;;;;;;17.70;65.00;;;;;;5047379;28;19923;-62
2023/04/29 00:40:08;;;;;;;;;;;17.70;65.10;;;;;;5047257;28;19921;-63
2023/04/29 00:42:33;;;;;;;;;;;17.70;65.20;;;;;;5047474;28;19920;-62
2023/04/29 00:44:59;;;;;;;;;;;17.70;65.20;;;;;;5029839;28;20261;-62
2023/04/29 00:47:24;;;;;;;;;;;17.60;65.10;;;;;;5047354;28;20312;-62
2023/04/29 00:49:50;;;;;;;;;;;17.60;65.10;;;;;;5030345;28;19920;-62
2023/04/29 00:52:16;;;;;;;;;;;17.60;65.10;;;;;;5047854;28;20565;-62
2023/04/29 00:54:42;;;;;;;;;;;17.50;65.10;;;;;;5047315;28;20439;-62
2023/04/29 00:57:08;;;;;;;;;;;17.50;65.10;;;;;;5047639;28;20082;-62
2023/04/29 00:59:34;;;;;;;;;;;17.50;65.20;;;;;;5048004;28;19970;-62
2023/04/29 01:02:00;;;;;;;;;;;17.50;65.20;;;;;;5050016;28;19924;-62
2023/04/29 01:04:26;;;;;;;;;;;17.50;65.10;;;;;;5067573;28;19920;-62
2023/04/29 01:07:02;;;;;;;;;;;17.50;65.20;;;;;;5065363;28;19970;-62
2023/04/29 01:09:35;;;;;;;;;;;17.50;65.20;;;;;;5047162;28;19916;-61
2023/04/29 01:12:14;;;;;;;;;;;17.50;65.30;;;;;;5047551;28;20343;-62
2023/04/29 01:14:42;;;;;;;;;;;17.50;65.20;;;;;;5047152;28;20352;-62
2023/04/29 01:17:13;;;;;;;;;;;17.50;65.20;;;;;;5047278;28;19991;-62
2023/04/29 01:19:53;;;;;;;;;;;17.50;64.90;;;;;;5047444;28;20373;-62
2023/04/29 01:22:20;;;;;;;;;;;17.50;64.90;;;;;;5047065;28;19921;-62
2023/04/29 01:24:47;;;;;;;;;;;17.50;64.90;;;;;;5047648;28;19963;-62
2023/04/29 01:27:30;;;;;;;;;;;17.50;64.90;;;;;;5046640;28;19921;-62
2023/04/29 01:30:05;;;;;;;;;;;17.50;64.80;;;;;;5047478;28;20313;-63
2023/04/29 01:32:49;;;;;;;;;;;17.50;64.90;;;;;;5046864;28;19917;-63
2023/04/29 01:35:53;;;;;;;;;;;17.40;64.90;;;;;;5031236;28;19922;-62
2023/04/29 01:38:21;;;;;;;;;;;17.40;64.80;;;;;;4929722;29;19926;-63
2023/04/29 01:40:55;;;;;;;;;;;17.50;64.90;;;;;;4928888;29;19976;-62
2023/04/29 01:43:22;;;;;;;;;;;17.40;64.80;;;;;;4981814;28;20253;-62
2023/04/29 01:45:47;;;;;;;;;;;17.40;64.70;;;;;;5028820;28;19917;-62
2023/04/29 01:48:13;;;;;;;;;;;17.40;64.60;;;;;;5046912;28;19909;-62
2023/04/29 01:50:38;;;;;;;;;;;17.30;64.60;;;;;;5047150;28;19912;-62
2023/04/29 01:53:04;;;;;;;;;;;17.40;64.70;;;;;;5046898;28;19981;-62
2023/04/29 01:55:29;;;;;;;;;;;17.30;64.80;;;;;;5046333;28;19949;-62
2023/04/29 01:57:54;;;;;;;;;;;17.30;64.80;;;;;;5046356;28;19920;-62
2023/04/29 02:00:20;;;;;;;;;;;17.30;64.70;;;;;;5046601;28;19919;-62
2023/04/29 02:02:46;;;;;;;;;;;17.30;64.80;;;;;;5055905;28;19970;-63
2023/04/29 02:05:11;;;;;;;;;;;17.20;64.80;;;;;;5056616;28;20298;-63
2023/04/29 02:07:37;;;;;;;;;;;17.20;64.80;;;;;;5046367;28;20334;-63
2023/04/29 02:10:02;;;;;;;;;;;17.20;64.90;;;;;;5046894;28;20380;-63
2023/04/29 02:12:28;;;;;;;;;;;17.20;64.90;;;;;;5046446;28;19913;-63
2023/04/29 02:14:53;;;;;;;;;;;17.20;65.00;;;;;;5046972;28;19913;-63
2023/04/29 02:17:19;;;;;;;;;;;17.10;64.90;;;;;;5046265;28;20213;-63
2023/04/29 02:19:44;;;;;;;;;;;17.10;65.00;;;;;;5046503;28;19916;-63
2023/04/29 02:22:11;;;;;;;;;;;17.10;65.00;;;;;;5045763;28;19924;-63
2023/04/29 02:24:37;;;;;;;;;;;17.10;65.10;;;;;;5046889;28;19917;-62
2023/04/29 02:27:04;;;;;;;;;;;17.00;65.00;;;;;;5046028;28;19994;-62
2023/04/29 02:29:30;;;;;;;;;;;17.00;65.10;;;;;;5046620;28;20363;-63
2023/04/29 02:31:56;;;;;;;;;;;17.00;65.10;;;;;;5046660;28;19917;-63
2023/04/29 02:34:22;;;;;;;;;;;17.00;65.10;;;;;;5046264;28;20336;-63
2023/04/29 02:36:48;;;;;;;;;;;17.00;65.10;;;;;;5045996;28;19996;-63
2023/04/29 02:39:14;;;;;;;;;;;17.00;65.10;;;;;;5045540;28;20459;-63
2023/04/29 02:41:40;;;;;;;;;;;17.00;65.10;;;;;;5045966;28;19959;-62
2023/04/29 02:44:06;;;;;;;;;;;17.00;65.10;;;;;;5035820;28;20410;-62
2023/04/29 02:46:34;;;;;;;;;;;17.00;65.10;;;;;;5046032;28;19921;-63
2023/04/29 02:49:00;;;;;;;;;;;17.00;65.00;;;;;;5030592;28;20355;-63
2023/04/29 02:51:26;;;;;;;;;;;17.00;65.00;;;;;;5028036;28;20399;-63
2023/04/29 02:53:52;;;;;;;;;;;17.00;65.10;;;;;;5030474;28;19913;-62
2023/04/29 02:56:17;;;;;;;;;;;17.00;65.10;;;;;;5029866;28;19928;-63
2023/04/29 02:58:43;;;;;;;;;;;17.00;64.90;;;;;;5030399;28;19967;-63
2023/04/29 03:01:08;;;;;;;;;;;16.90;65.00;;;;;;5046010;28;20357;-63
2023/04/29 03:03:33;;;;;;;;;;;16.90;65.00;;;;;;5065603;28;19923;-63
2023/04/29 03:05:59;;;;;;;;;;;16.90;64.90;;;;;;5069926;28;19919;-63
2023/04/29 03:08:25;;;;;;;;;;;16.90;64.90;;;;;;5049969;28;19928;-62
2023/04/29 03:10:50;;;;;;;;;;;16.80;65.10;;;;;;5049811;28;19917;-63
2023/04/29 03:13:15;;;;;;;;;;;16.80;65.00;;;;;;5049840;28;19913;-63
2023/04/29 03:15:41;;;;;;;;;;;16.80;65.00;;;;;;5049792;28;19963;-59
2023/04/29 03:18:08;;;;;;;;;;;16.80;65.10;;;;;;5049790;28;19928;-63
2023/04/29 03:20:34;;;;;;;;;;;16.80;65.20;;;;;;5049734;28;20020;-63
2023/04/29 03:22:59;;;;;;;;;;;16.80;65.20;;;;;;5049474;28;20012;-63
2023/04/29 03:25:25;;;;;;;;;;;16.80;65.10;;;;;;5031429;28;19989;-62
2023/04/29 03:27:50;;;;;;;;;;;16.80;65.20;;;;;;5049418;28;19920;-62
2023/04/29 03:30:16;;;;;;;;;;;16.80;65.30;;;;;;5049508;28;19913;-63
2023/04/29 03:32:41;;;;;;;;;;;16.80;65.10;;;;;;5049560;28;20000;-62
2023/04/29 03:35:07;;;;;;;;;;;16.80;65.20;;;;;;5049216;28;19919;-62
2023/04/29 03:37:32;;;;;;;;;;;16.80;65.30;;;;;;5039861;28;19948;-62
2023/04/29 03:39:58;;;;;;;;;;;16.70;65.20;;;;;;5049334;28;19931;-63
2023/04/29 03:42:23;;;;;;;;;;;16.80;65.20;;;;;;5048430;28;20085;-63
2023/04/29 03:44:49;;;;;;;;;;;16.80;65.30;;;;;;5049486;28;19940;-63
2023/04/29 03:47:14;;;;;;;;;;;16.80;65.20;;;;;;5049206;28;20312;-62
2023/04/29 03:49:40;;;;;;;;;;;16.80;65.20;;;;;;5048753;28;19951;-62
2023/04/29 03:52:05;;;;;;;;;;;16.80;65.30;;;;;;5049052;28;20324;-62
2023/04/29 03:54:31;;;;;;;;;;;16.80;65.20;;;;;;5048555;28;20233;-63
2023/04/29 03:56:56;;;;;;;;;;;16.80;65.20;;;;;;5048598;28;19913;-62
2023/04/29 03:59:22;;;;;;;;;;;16.80;65.20;;;;;;5048836;28;19924;-62
2023/04/29 04:01:47;;;;;;;;;;;16.80;65.20;;;;;;5049685;28;19920;-63
2023/04/29 04:04:13;;;;;;;;;;;16.70;65.20;;;;;;5068303;28;19962;-62
2023/04/29 04:06:38;;;;;;;;;;;16.70;65.10;;;;;;5061636;28;20303;-62
2023/04/29 04:09:03;;;;;;;;;;;16.70;65.20;;;;;;5048361;28;19921;-62
2023/04/29 04:11:29;;;;;;;;;;;16.70;65.10;;;;;;5047236;28;20198;-62
2023/04/29 04:13:54;;;;;;;;;;;16.70;65.00;;;;;;5047201;28;20137;-62
2023/04/29 04:16:20;;;;;;;;;;;16.70;65.10;;;;;;5047241;28;20355;-62
2023/04/29 04:18:45;;;;;;;;;;;16.70;65.00;;;;;;5047137;28;19924;-62
2023/04/29 04:21:11;;;;;;;;;;;16.70;65.10;;;;;;5029244;28;20315;-63
2023/04/29 04:23:39;;;;;;;;;;;16.70;65.00;;;;;;5046536;28;19939;-62
2023/04/29 04:26:04;;;;;;;;;;;16.70;65.00;;;;;;5031295;28;19986;-63
2023/04/29 04:28:30;;;;;;;;;;;16.70;65.00;;;;;;5047931;28;19917;-62
2023/04/29 04:30:55;;;;;;;;;;;16.70;65.10;;;;;;5048413;28;19917;-61
2023/04/29 04:33:21;;;;;;;;;;;16.70;64.90;;;;;;5047766;28;19995;-62
2023/04/29 04:35:47;;;;;;;;;;;16.70;64.90;;;;;;5048000;28;19994;-62
2023/04/29 04:38:12;;;;;;;;;;;16.70;64.80;;;;;;5047911;28;19917;-62
2023/04/29 04:40:41;;;;;;;;;;;16.70;64.70;;;;;;5047637;28;20384;-62
2023/04/29 04:43:06;;;;;;;;;;;16.70;64.70;;;;;;5048192;28;20380;-62
2023/04/29 04:45:32;;;;;;;;;;;16.70;64.80;;;;;;5047468;28;20014;-62
2023/04/29 04:47:57;;;;;;;;;;;16.70;64.70;;;;;;5048043;28;20326;-63
2023/04/29 04:50:23;;;;;;;;;;;16.70;64.60;;;;;;5047808;28;20284;-62
2023/04/29 04:52:48;;;;;;;;;;;16.70;64.50;;;;;;5047863;28;20451;-62
2023/04/29 04:55:14;;;;;;;;;;;16.70;64.60;;;;;;5047043;28;19949;-62
2023/04/29 04:57:39;;;;;;;;;;;16.70;64.40;;;;;;5047843;28;19912;-62
2023/04/29 05:00:05;;;;;;;;;;;16.70;64.30;;;;;;5047139;28;19917;-63
2023/04/29 05:02:31;;;;;;;;;;;16.70;64.40;;;;;;5044263;28;19924;-62
2023/04/29 05:04:56;;;;;;;;;;;16.70;64.30;;;;;;5047189;28;19921;-62
2023/04/29 05:07:22;;;;;;;;;;;16.70;64.40;;;;;;5048022;28;19916;-62
2023/04/29 05:09:47;;;;;;;;;;;16.70;64.50;;;;;;5043880;28;19917;-62
2023/04/29 05:12:13;;;;;;;;;;;16.70;64.50;;;;;;5027721;28;20364;-62
2023/04/29 05:14:38;;;;;;;;;;;16.70;64.40;;;;;;5044215;28;19917;-62
2023/04/29 05:17:03;;;;;;;;;;;16.70;64.80;;;;;;5047503;28;20015;-62
2023/04/29 05:19:29;;;;;;;;;;;16.80;64.60;;;;;;5039793;28;19913;-62
2023/04/29 05:21:54;;;;;;;;;;;16.80;64.60;;;;;;5027098;28;19921;-62
2023/04/29 05:24:20;;;;;;;;;;;16.80;64.70;;;;;;5027308;28;20474;-63
2023/04/29 05:26:45;;;;;;;;;;;16.80;64.60;;;;;;5027403;28;19920;-63
2023/04/29 05:29:11;;;;;;;;;;;16.80;64.50;;;;;;5027679;28;19913;-62
2023/04/29 05:31:37;;;;;;;;;;;16.90;64.50;;;;;;5034146;28;19920;-62
2023/04/29 05:34:05;;;;;;;;;;;16.90;64.60;;;;;;5047006;28;19913;-63
2023/04/29 05:36:31;;;;;;;;;;;16.90;64.30;;;;;;5038293;28;19939;-62
2023/04/29 05:38:56;;;;;;;;;;;16.90;64.50;;;;;;5040419;28;19924;-63
2023/04/29 05:41:23;;;;;;;;;;;16.90;64.50;;;;;;5044575;28;20018;-63
2023/04/29 05:43:50;;;;;;;;;;;16.90;64.50;;;;;;5027137;28;21282;-63
2023/04/29 05:46:16;;;;;;;;;;;16.90;64.30;;;;;;5046798;28;19919;-62
2023/04/29 05:48:41;;;;;;;;;;;16.90;64.50;;;;;;5046569;28;19917;-61
2023/04/29 05:51:07;;;;;;;;;;;17.00;64.20;;;;;;5046983;28;19913;-62
2023/04/29 05:53:32;;;;;;;;;;;16.90;64.10;;;;;;5045736;28;20295;-62
2023/04/29 05:55:58;;;;;;;;;;;16.90;64.40;;;;;;5046516;28;20390;-62
2023/04/29 05:58:24;;;;;;;;;;;17.00;64.70;;;;;;5045814;28;20404;-62
2023/04/29 06:00:50;;;;;;;;;;;17.00;64.60;;;;;;5037028;28;20333;-62
2023/04/29 06:03:16;;;;;;;;;;;17.00;64.10;;;;;;5045295;28;19921;-63
2023/04/29 06:05:41;;;;;;;;;;;17.00;64.00;;;;;;5043701;28;19943;-62
2023/04/29 06:08:07;;;;;;;;;;;17.00;64.00;;;;;;5026624;28;19963;-62
2023/04/29 06:10:32;;;;;;;;;;;16.90;64.30;;;;;;5031778;28;19912;-62
2023/04/29 06:12:58;;;;;;;;;;;16.90;64.40;;;;;;5046364;28;20372;-61
2023/04/29 06:15:23;;;;;;;;;;;17.00;64.60;;;;;;5044902;28;20400;-62
2023/04/29 06:17:49;;;;;;;;;;;17.00;64.60;;;;;;5046184;28;20398;-62
2023/04/29 06:20:14;;;;;;;;;;;17.10;64.70;;;;;;5045343;28;20012;-62
2023/04/29 06:22:40;;;;;;;;;;;17.20;64.50;;;;;;5046019;28;19916;-62
2023/04/29 06:25:06;;;;;;;;;;;17.20;64.40;;;;;;5043702;28;19920;-62
2023/04/29 06:27:31;;;;;;;;;;;17.20;64.40;;;;;;5045875;28;19917;-62
2023/04/29 06:29:56;;;;;;;;;;;17.30;64.40;;;;;;5049170;28;20067;-62
2023/04/29 06:32:22;;;;;;;;;;;17.30;64.00;;;;;;5049843;28;19956;-62
2023/04/29 06:34:47;;;;;;;;;;;17.30;64.30;;;;;;5031521;28;20385;-61
2023/04/29 06:37:13;;;;;;;;;;;17.30;64.10;;;;;;5050600;28;19913;-62
2023/04/29 06:39:38;;;;;;;;;;;17.30;64.30;;;;;;5049204;28;20417;-62
2023/04/29 06:42:04;;;;;;;;;;;17.30;64.10;;;;;;5049173;28;19921;-62
2023/04/29 06:44:29;;;;;;;;;;;17.30;64.30;;;;;;5050229;28;20334;-61
2023/04/29 06:46:55;;;;;;;;;;;17.30;64.30;;;;;;5048140;28;19916;-61
2023/04/29 06:49:21;;;;;;;;;;;17.40;64.20;;;;;;5049912;28;19917;-62
2023/04/29 06:51:46;;;;;;;;;;;17.40;64.20;;;;;;5048232;28;19916;-62
2023/04/29 06:54:12;;;;;;;;;;;17.50;64.30;;;;;;5048362;28;20002;-62
2023/04/29 06:56:37;;;;;;;;;;;17.50;64.50;;;;;;5039266;28;19932;-62
2023/04/29 06:59:03;;;;;;;;;;;17.60;64.60;;;;;;5050017;28;20352;-62
2023/04/29 07:01:29;;;;;;;;;;;17.60;64.40;;;;;;5050422;28;19913;-62
2023/04/29 07:03:54;;;;;;;;;;;17.70;64.30;;;;;;5050066;28;20359;-62
2023/04/29 07:06:19;;;;;;;;;;;17.70;64.00;;;;;;5049903;28;19963;-61
2023/04/29 07:08:45;;;;;;;;;;;17.80;64.00;;;;;;5049816;28;19913;-62
2023/04/29 07:11:11;;;;;;;;;;;17.90;63.70;;;;;;5049579;28;19912;-62
2023/04/29 07:13:36;;;;;;;;;;;17.80;63.50;;;;;;5049628;28;19913;-62
2023/04/29 07:16:01;;;;;;;;;;;17.90;63.40;;;;;;5049778;28;19912;-62
2023/04/29 07:18:27;;;;;;;;;;;17.90;63.30;;;;;;5049698;28;19917;-62
2023/04/29 07:20:54;;;;;;;;;;;17.80;63.20;;;;;;5049643;28;19913;-62
2023/04/29 07:23:20;;;;;;;;;;;17.80;63.20;;;;;;5049749;28;19928;-62
2023/04/29 07:25:45;;;;;;;;;;;17.90;63.10;;;;;;5045821;28;19913;-61
2023/04/29 07:28:11;;;;;;;;;;;17.90;63.40;;;;;;5048906;28;20463;-61
2023/04/29 07:30:37;;;;;;;;;;;17.90;63.10;;;;;;5049213;28;19921;-61
2023/04/29 07:33:03;;;;;;;;;;;17.90;63.30;;;;;;5049355;28;19916;-61
2023/04/29 07:35:28;;;;;;;;;;;18.00;63.60;;;;;;5047140;28;19917;-61
2023/04/29 07:37:54;;;;;;;;;;;18.00;63.40;;;;;;5041226;28;20291;-61
2023/04/29 07:40:20;;;;;;;;;;;18.00;63.30;;;;;;5064013;28;20383;-61
2023/04/29 07:42:45;;;;;;;;;;;18.10;63.50;;;;;;5048824;28;19932;-61
2023/04/29 07:45:12;;;;;;;;;;;18.20;63.50;;;;;;5045390;28;19991;-61
2023/04/29 07:47:38;;;;;;;;;;;18.30;63.60;;;;;;5049226;28;20295;-61
2023/04/29 07:50:04;;;;;;;;;;;18.50;63.60;;;;;;5048650;28;19924;-61
2023/04/29 07:52:29;;;;;;;;;;;18.60;63.40;;;;;;5049687;28;19909;-61
2023/04/29 07:54:55;;;;;;;;;;;18.70;63.70;;;;;;5046971;28;20019;-61
2023/04/29 07:57:20;;;;;;;;;;;18.80;63.50;;;;;;5047837;28;20344;-61
2023/04/29 07:59:46;;;;;;;;;;;18.80;62.90;;;;;;5048800;28;20384;-61
2023/04/29 08:02:12;;;;;;;;;;;18.80;62.40;;;;;;5048933;28;19912;-61
2023/04/29 08:04:40;;;;;;;;;;;18.90;62.70;;;;;;5048792;28;20428;-61
2023/04/29 08:07:05;;;;;;;;;;;18.90;62.10;;;;;;5045188;28;20213;-61
2023/04/29 08:09:30;;;;;;;;;;;18.80;62.00;;;;;;5048369;28;20345;-61
2023/04/29 08:11:56;;;;;;;;;;;18.90;62.50;;;;;;5048483;28;20194;-61
2023/04/29 08:14:21;;;;;;;;;;;18.90;62.00;;;;;;5048664;28;20280;-61
2023/04/29 08:16:47;;;;;;;;;;;18.90;62.40;;;;;;5044974;28;19909;-61
2023/04/29 08:19:12;;;;;;;;;;;18.90;62.30;;;;;;5048475;28;19917;-61
2023/04/29 08:21:38;;;;;;;;;;;18.90;62.80;;;;;;5048031;28;19919;-61
2023/04/29 08:24:04;;;;;;;;;;;19.10;62.90;;;;;;5048969;28;19928;-61
2023/04/29 08:26:30;;;;;;;;;;;19.10;62.70;;;;;;5045134;28;19919;-61
2023/04/29 08:28:55;;;;;;;;;;;19.20;62.80;;;;;;5048071;28;19921;-61
2023/04/29 08:31:21;;;;;;;;;;;19.30;62.70;;;;;;5029420;28;19915;-61
2023/04/29 08:33:46;;;;;;;;;;;19.30;62.90;;;;;;5047852;28;19917;-61
2023/04/29 08:36:12;;;;;;;;;;;19.40;62.70;;;;;;5044580;28;19916;-62
2023/04/29 08:38:38;;;;;;;;;;;19.50;62.70;;;;;;5048050;28;19963;-61
2023/04/29 08:41:06;;;;;;;;;;;19.60;62.80;;;;;;5047877;28;19963;-61
2023/04/29 08:43:34;;;;;;;;;;;19.60;62.10;;;;;;5047826;28;20288;-61
2023/04/29 08:45:59;;;;;;;;;;;19.70;61.70;;;;;;5044508;28;20216;-61
2023/04/29 08:48:25;;;;;;;;;;;19.70;61.70;;;;;;5046275;28;19917;-61
2023/04/29 08:50:50;;;;;;;;;;;19.80;61.90;;;;;;5047534;28;19987;-61
2023/04/29 08:53:16;;;;;;;;;;;19.90;62.00;;;;;;5047288;28;20399;-60
2023/04/29 08:55:42;;;;;;;;;;;20.10;62.30;;;;;;5044274;28;19916;-61
2023/04/29 08:58:09;;;;;;;;;;;20.30;62.60;;;;;;5047421;28;19913;-61
2023/04/29 09:00:35;;;;;;;;;;;20.50;62.50;;;;;;5029391;28;19912;-60
2023/04/29 09:03:03;;;;;;;;;;;20.80;63.00;;;;;;5047570;28;20269;-61
2023/04/29 09:05:29;;;;;;;;;;;21.00;63.40;;;;;;5044339;28;20489;-61
2023/04/29 09:07:56;;;;;;;;;;;21.30;62.40;;;;;;5047723;28;19917;-61
2023/04/29 09:10:22;;;;;;;;;;;21.50;62.20;;;;;;5047321;28;19909;-61
2023/04/29 09:12:47;;;;;;;;;;;21.80;62.30;;;;;;5047765;28;19912;-61
2023/04/29 09:15:13;;;;;;;;;;;22.20;61.80;;;;;;5047464;28;19913;-61
2023/04/29 09:17:41;;;;;;;;;;;22.30;59.80;;;;;;5046928;28;20002;-61
2023/04/29 09:20:18;;;;;;;;;;;22.50;59.80;;;;;;5040859;28;19960;-61
2023/04/29 09:22:47;;;;;;;;;;;22.60;57.30;;;;;;5036232;28;19928;-61
2023/04/29 09:25:13;;;;;;;;;;;22.60;57.00;;;;;;5026645;28;19913;-61
2023/04/29 09:27:38;;;;;;;;;;;22.70;57.50;;;;;;5035466;28;20460;-60
2023/04/29 09:30:04;;;;;;;;;;;22.90;57.60;;;;;;5044107;28;19967;-61
2023/04/29 09:32:30;;;;;;;;;;;23.00;55.50;;;;;;5047432;28;19920;-62
2023/04/29 09:34:55;;;;;;;;;;;23.10;54.60;;;;;;5046993;28;20017;-62
2023/04/29 09:37:26;;;;;;;;;;;23.20;56.00;;;;;;5029351;28;19913;-62
2023/04/29 09:39:51;;;;;;;;;;;23.50;54.90;;;;;;5046689;28;19924;-62
2023/04/29 09:42:17;;;;;;;;;;;23.70;56.50;;;;;;5047016;28;19967;-64
2023/04/29 09:44:43;;;;;;;;;;;24.00;56.70;;;;;;5047261;28;20292;-62
2023/04/29 09:47:09;;;;;;;;;;;24.30;57.60;;;;;;5047370;28;20588;-63
2023/04/29 09:49:36;;;;;;;;;;;24.70;57.50;;;;;;5047229;28;19919;-62
2023/04/29 09:52:09;;;;;;;;;;;25.00;54.90;;;;;;5047081;28;20371;-63
2023/04/29 09:54:35;;;;;;;;;;;25.10;53.70;;;;;;5047226;28;19916;-63
2023/04/29 09:57:03;;;;;;;;;;;25.20;54.00;;;;;;5047239;28;19917;-59
2023/04/29 09:59:29;;;;;;;;;;;25.10;52.00;;;;;;5046709;28;20141;-61
2023/04/29 10:01:55;;;;;;;;;;;25.10;52.20;;;;;;5046188;28;19927;-61
2023/04/29 10:04:22;;;;;;;;;;;25.20;53.60;;;;;;5046726;28;19919;-61
2023/04/29 10:06:48;;;;;;;;;;;25.80;52.60;;;;;;5047306;28;19919;-61
2023/04/29 10:09:17;;;;;;;;;;;26.30;51.60;;;;;;5046876;28;19912;-61
2023/04/29 10:11:43;;;;;;;;;;;26.70;51.10;;;;;;5046688;28;20106;-61
2023/04/29 10:14:13;;;;;;;;;;;26.60;48.00;;;;;;5046615;28;19912;-61
2023/04/29 10:17:05;;;;;;;;;;;26.40;47.30;;;;;;5047124;28;19924;-62
2023/04/29 10:19:46;;;;;;;;;;;26.20;45.40;;;;;;5043180;28;20007;-62
2023/04/29 10:22:15;;;;;;;;;;;25.80;45.60;;;;;;5046722;28;19917;-62
2023/04/29 10:24:42;;;;;;;;;;;25.60;44.90;;;;;;5046702;28;19924;-61
2023/04/29 10:27:08;;;;;;;;;;;25.40;44.50;;;;;;5047089;28;19912;-61
2023/04/29 10:29:35;;;;;;;;;;;25.30;46.00;;;;;;5047224;28;19924;-61
2023/04/29 10:32:02;;;;;;;;;;;25.00;44.20;;;;;;5046751;28;19912;-61
2023/04/29 10:34:28;;;;;;;;;;;24.70;45.10;;;;;;5046566;28;19917;-60
2023/04/29 10:36:54;;;;;;;;;;;24.60;45.80;;;;;;5046814;28;20291;-61
2023/04/29 10:39:27;;;;;;;;;;;24.40;45.50;;;;;;5046809;28;19991;-63
2023/04/29 10:41:53;;;;;;;;;;;24.20;45.90;;;;;;5037621;28;19979;-63
2023/04/29 10:44:18;;;;;;;;;;;24.00;46.10;;;;;;5027652;28;20359;-62
2023/04/29 10:46:44;;;;;;;;;;;23.80;44.60;;;;;;5026760;28;19914;-60
2023/04/29 10:49:09;;;;;;;;;;;23.50;44.50;;;;;;5026761;28;19918;-63
2023/04/29 10:51:41;;;;;;;;;;;23.30;46.50;;;;;;5026744;28;19968;-60
2023/04/29 10:54:14;;;;;;;;;;;23.20;46.50;;;;;;5026737;28;19920;-63
2023/04/29 10:56:46;;;;;;;;;;;23.10;45.40;;;;;;5026667;28;19922;-62
2023/04/29 10:59:13;;;;;;;;;;;23.00;45.00;;;;;;5026729;28;19963;-61
2023/04/29 11:01:49;;;;;;;;;;;22.90;45.30;;;;;;5026380;28;20320;-61
2023/04/29 11:04:15;;;;;;;;;;;22.80;45.40;;;;;;5026474;28;19917;-60
2023/04/29 11:06:42;;;;;;;;;;;22.70;46.10;;;;;;5026044;28;19913;-60
2023/04/29 11:09:23;;;;;;;;;;;22.70;46.10;;;;;;5026494;28;19967;-60
2023/04/29 11:11:52;;;;;;;;;;;22.80;45.50;;;;;;5027043;28;20325;-60
2023/04/29 11:14:23;;;;;;;;;;;22.90;45.70;;;;;;5030226;28;20432;-61
2023/04/29 11:16:53;;;;;;;;;;;23.20;46.70;;;;;;5030189;28;19940;-60
2023/04/29 11:19:18;;;;;;;;;;;23.70;47.40;;;;;;5030143;28;19979;-60
2023/04/29 11:21:45;;;;;;;;;;;24.20;45.20;;;;;;5030031;28;19921;-60
2023/04/29 11:24:11;;;;;;;;;;;24.50;44.00;;;;;;5029971;28;19951;-60
2023/04/29 11:26:37;;;;;;;;;;;24.70;43.20;;;;;;5029590;28;20039;-60
2023/04/29 11:29:09;;;;;;;;;;;24.80;43.70;;;;;;5030019;28;20398;-60
2023/04/29 11:31:35;;;;;;;;;;;24.90;42.50;;;;;;5029712;28;20121;-61
2023/04/29 11:34:02;;;;;;;;;;;24.90;40.80;;;;;;5030308;28;19913;-60
2023/04/29 11:36:30;;;;;;;;;;;24.70;38.30;;;;;;5029651;28;20316;-61
2023/04/29 11:38:58;;;;;;;;;;;24.40;39.00;;;;;;5029524;28;19921;-60
2023/04/29 11:41:24;;;;;;;;;;;24.30;38.90;;;;;;5029550;28;19913;-61
2023/04/29 11:43:56;;;;;;;;;;;24.20;38.70;;;;;;5029616;28;19943;-62
2023/04/29 11:46:22;;;;;;;;;;;24.10;38.50;;;;;;5029292;28;20408;-61
2023/04/29 11:48:48;;;;;;;;;;;24.10;39.30;;;;;;5028045;28;19920;-61
2023/04/29 11:51:14;;;;;;;;;;;24.20;37.60;;;;;;5029603;28;19913;-61
2023/04/29 11:53:40;;;;;;;;;;;24.20;38.00;;;;;;5029216;28;20277;-61
2023/04/29 11:56:05;;;;;;;;;;;24.30;38.50;;;;;;5029513;28;19944;-61
2023/04/29 11:58:31;;;;;;;;;;;24.40;39.20;;;;;;5029279;28;19913;-61
2023/04/29 12:00:59;;;;;;;;;;;24.60;39.10;;;;;;5029467;28;19940;-61
2023/04/29 12:03:25;;;;;;;;;;;24.70;38.90;;;;;;5028787;28;19921;-61
2023/04/29 12:05:54;;;;;;;;;;;25.10;39.50;;;;;;5029161;28;19924;-61
2023/04/29 12:08:20;;;;;;;;;;;25.50;40.30;;;;;;5028765;28;20399;-61
2023/04/29 12:10:46;;;;;;;;;;;25.80;38.70;;;;;;5029097;28;19952;-61
2023/04/29 12:13:12;;;;;;;;;;;26.10;37.90;;;;;;5028610;28;20017;-61
2023/04/29 12:15:38;;;;;;;;;;;26.20;36.30;;;;;;5027706;28;19960;-62
2023/04/29 12:18:03;;;;;;;;;;;26.10;35.20;;;;;;5028815;28;20436;-61
2023/04/29 12:20:29;;;;;;;;;;;26.10;37.10;;;;;;5028509;28;19913;-61
2023/04/29 12:22:54;;;;;;;;;;;26.20;36.70;;;;;;5028273;28;19952;-61
2023/04/29 12:25:24;;;;;;;;;;;26.20;36.20;;;;;;5028043;28;19953;-61
2023/04/29 12:27:49;;;;;;;;;;;26.10;35.80;;;;;;5028310;28;20361;-61
2023/04/29 12:30:14;;;;;;;;;;;26.00;34.90;;;;;;5028664;28;19928;-61
2023/04/29 12:32:40;;;;;;;;;;;25.80;35.40;;;;;;5028739;28;19940;-61
2023/04/29 12:35:14;;;;;;;;;;;25.60;35.10;;;;;;5028723;28;19921;-61
2023/04/29 12:37:39;;;;;;;;;;;25.50;35.10;;;;;;5028723;28;19917;-61
2023/04/29 12:40:05;;;;;;;;;;;25.20;35.50;;;;;;5028338;28;19947;-61
2023/04/29 12:42:32;;;;;;;;;;;25.20;35.80;;;;;;5027913;28;19917;-61
2023/04/29 12:44:57;;;;;;;;;;;25.00;36.30;;;;;;5028338;28;20391;-61
2023/04/29 12:47:22;;;;;;;;;;;24.80;35.20;;;;;;5027743;28;19913;-61
2023/04/29 12:49:48;;;;;;;;;;;24.50;35.10;;;;;;5028187;28;20194;-61
2023/04/29 12:52:14;;;;;;;;;;;24.20;36.10;;;;;;5027808;28;19910;-61
2023/04/29 12:54:40;;;;;;;;;;;24.20;37.10;;;;;;5026260;28;20380;-62
2023/04/29 12:57:06;;;;;;;;;;;24.10;36.90;;;;;;5027709;28;19928;-62
2023/04/29 12:59:32;;;;;;;;;;;24.00;36.90;;;;;;5028041;28;20165;-62
2023/04/29 13:01:57;;;;;;;;;;;24.00;37.50;;;;;;5033551;28;20030;-62
2023/04/29 13:04:22;;;;;;;;;;;24.00;37.40;;;;;;5047591;28;19924;-62
2023/04/29 13:06:48;;;;;;;;;;;24.00;37.00;;;;;;5048082;28;19912;-69
2023/04/29 13:09:13;;;;;;;;;;;24.00;37.40;;;;;;5047775;28;20225;-69
2023/04/29 13:11:39;;;;;;;;;;;23.90;37.10;;;;;;5029662;28;19919;-69
2023/04/29 13:14:05;;;;;;;;;;;23.80;36.60;;;;;;5047320;28;20011;-70
2023/04/29 13:16:33;;;;;;;;;;;23.70;36.90;;;;;;5047470;28;19938;-69
2023/04/29 13:18:59;;;;;;;;;;;23.60;37.40;;;;;;5047284;28;19913;-69
2023/04/29 13:21:26;;;;;;;;;;;23.50;37.50;;;;;;5047189;28;20402;-69
2023/04/29 13:23:52;;;;;;;;;;;23.50;37.20;;;;;;5047772;28;20407;-69
2023/04/29 13:26:17;;;;;;;;;;;23.30;37.10;;;;;;5047009;28;20038;-69
2023/04/29 13:28:42;;;;;;;;;;;23.20;37.00;;;;;;5047048;28;20337;-69
2023/04/29 13:31:08;;;;;;;;;;;23.10;37.30;;;;;;5047165;28;19913;-69
2023/04/29 13:33:33;;;;;;;;;;;22.90;37.30;;;;;;5047684;28;20358;-67
2023/04/29 13:35:59;;;;;;;;;;;22.80;37.70;;;;;;5046979;28;19939;-67
2023/04/29 13:38:24;;;;;;;;;;;22.80;38.30;;;;;;5048161;28;19924;-68
2023/04/29 13:40:50;;;;;;;;;;;22.90;38.40;;;;;;5048624;28;20348;-68
2023/04/29 13:43:16;;;;;;;;;;;23.00;38.60;;;;;;5048086;28;19916;-67
2023/04/29 13:45:41;;;;;;;;;;;23.10;38.40;;;;;;5048898;28;19978;-67
2023/04/29 13:48:07;;;;;;;;;;;23.20;37.70;;;;;;5048086;28;19982;-68
2023/04/29 13:50:33;;;;;;;;;;;23.20;37.50;;;;;;5048910;28;19931;-67
2023/04/29 13:52:58;;;;;;;;;;;23.10;37.40;;;;;;5030355;28;20372;-67
2023/04/29 13:55:23;;;;;;;;;;;23.10;36.80;;;;;;5048117;28;19928;-67
2023/04/29 13:57:49;;;;;;;;;;;22.90;36.80;;;;;;5030312;28;19995;-66
2023/04/29 14:00:15;;;;;;;;;;;22.80;36.90;;;;;;5047497;28;20011;-66
2023/04/29 14:02:41;;;;;;;;;;;22.60;37.20;;;;;;5048706;28;19936;-67
2023/04/29 14:05:08;;;;;;;;;;;22.50;37.70;;;;;;5046686;28;19924;-66
2023/04/29 14:07:34;;;;;;;;;;;22.40;37.30;;;;;;5046294;28;20315;-66
2023/04/29 14:09:59;;;;;;;;;;;22.30;37.10;;;;;;5048650;28;19921;-66
2023/04/29 14:12:25;;;;;;;;;;;22.30;37.00;;;;;;5047610;28;20210;-67